sensor_id;sensor_type;location;lat;lon;timestamp;P1;durP1;ratioP1;P2;durP2;ratioP2
51981;SDS011;37998;53.416;6.730;2023-03-26T00:00:58;14.30;;;3.13;;
51981;SDS011;37998;53.416;6.730;2023-03-26T00:03:25;20.30;;;4.65;;
51981;SDS011;37998;53.416;6.730;2023-03-26T00:06:05;17.45;;;3.53;;
51981;SDS011;37998;53.416;6.730;2023-03-26T00:08:37;25.00;;;4.40;;
51981;SDS011;37998;53.416;6.730;2023-03-26T00:11:04;12.45;;;3.20;;
51981;SDS011;37998;53.416;6.730;2023-03-26T00:13:31;9.73;;;2.90;;
51981;SDS011;37998;53.416;6.730;2023-03-26T00:15:57;14.38;;;2.80;;
51981;SDS011;37998;53.416;6.730;2023-03-26T00:18:24;10.70;;;2.58;;
51981;SDS011;37998;53.416;6.730;2023-03-26T00:20:57;14.57;;;2.80;;
51981;SDS011;37998;53.416;6.730;2023-03-26T00:23:23;10.65;;;3.25;;
51981;SDS011;37998;53.416;6.730;2023-03-26T00:25:49;10.70;;;2.20;;
51981;SDS011;37998;53.416;6.730;2023-03-26T00:28:16;9.98;;;2.50;;
51981;SDS011;37998;53.416;6.730;2023-03-26T00:30:45;7.97;;;2.38;;
51981;SDS011;37998;53.416;6.730;2023-03-26T00:33:12;14.77;;;2.78;;
51981;SDS011;37998;53.416;6.730;2023-03-26T00:35:41;13.85;;;2.63;;
51981;SDS011;37998;53.416;6.730;2023-03-26T00:38:11;14.80;;;3.45;;
51981;SDS011;37998;53.416;6.730;2023-03-26T00:40:41;15.55;;;3.22;;
51981;SDS011;37998;53.416;6.730;2023-03-26T00:43:08;13.13;;;2.40;;
51981;SDS011;37998;53.416;6.730;2023-03-26T00:45:43;22.40;;;3.65;;
51981;SDS011;37998;53.416;6.730;2023-03-26T00:48:10;21.95;;;4.47;;
51981;SDS011;37998;53.416;6.730;2023-03-26T00:50:37;22.95;;;4.50;;
51981;SDS011;37998;53.416;6.730;2023-03-26T00:53:03;24.80;;;4.95;;
51981;SDS011;37998;53.416;6.730;2023-03-26T00:55:29;23.45;;;4.95;;
51981;SDS011;37998;53.416;6.730;2023-03-26T00:57:54;26.90;;;4.65;;
51981;SDS011;37998;53.416;6.730;2023-03-26T01:00:26;30.38;;;4.47;;
51981;SDS011;37998;53.416;6.730;2023-03-26T01:02:59;23.83;;;4.82;;
51981;SDS011;37998;53.416;6.730;2023-03-26T01:08:10;19.60;;;3.58;;
51981;SDS011;37998;53.416;6.730;2023-03-26T01:10:41;17.38;;;3.90;;
51981;SDS011;37998;53.416;6.730;2023-03-26T01:13:08;13.30;;;3.28;;
51981;SDS011;37998;53.416;6.730;2023-03-26T01:15:34;15.23;;;3.30;;
51981;SDS011;37998;53.416;6.730;2023-03-26T01:18:03;16.63;;;3.30;;
51981;SDS011;37998;53.416;6.730;2023-03-26T01:20:29;11.25;;;3.25;;
51981;SDS011;37998;53.416;6.730;2023-03-26T01:23:03;20.13;;;3.15;;
51981;SDS011;37998;53.416;6.730;2023-03-26T01:25:32;16.63;;;3.35;;
51981;SDS011;37998;53.416;6.730;2023-03-26T01:28:03;18.85;;;3.53;;
51981;SDS011;37998;53.416;6.730;2023-03-26T01:38:42;11.60;;;2.83;;
51981;SDS011;37998;53.416;6.730;2023-03-26T01:44:15;16.23;;;3.45;;
51981;SDS011;37998;53.416;6.730;2023-03-26T01:46:47;14.48;;;3.55;;
51981;SDS011;37998;53.416;6.730;2023-03-26T01:49:16;12.85;;;2.60;;
51981;SDS011;37998;53.416;6.730;2023-03-26T01:51:42;12.15;;;2.88;;
51981;SDS011;37998;53.416;6.730;2023-03-26T01:54:10;13.45;;;3.53;;
51981;SDS011;37998;53.416;6.730;2023-03-26T01:59:26;10.07;;;3.42;;
51981;SDS011;37998;53.416;6.730;2023-03-26T02:02:20;12.70;;;3.33;;
51981;SDS011;37998;53.416;6.730;2023-03-26T02:05:03;10.15;;;3.55;;
51981;SDS011;37998;53.416;6.730;2023-03-26T02:10:40;16.77;;;3.20;;
51981;SDS011;37998;53.416;6.730;2023-03-26T02:13:08;18.55;;;3.85;;
51981;SDS011;37998;53.416;6.730;2023-03-26T02:15:35;15.48;;;3.22;;
51981;SDS011;37998;53.416;6.730;2023-03-26T02:18:01;14.32;;;3.50;;
51981;SDS011;37998;53.416;6.730;2023-03-26T02:20:28;10.90;;;3.13;;
51981;SDS011;37998;53.416;6.730;2023-03-26T02:22:54;16.48;;;3.20;;
51981;SDS011;37998;53.416;6.730;2023-03-26T02:25:21;15.43;;;3.72;;
51981;SDS011;37998;53.416;6.730;2023-03-26T02:27:48;13.82;;;3.22;;
51981;SDS011;37998;53.416;6.730;2023-03-26T02:30:17;23.23;;;3.65;;
51981;SDS011;37998;53.416;6.730;2023-03-26T02:32:45;20.63;;;3.05;;
51981;SDS011;37998;53.416;6.730;2023-03-26T02:35:11;15.98;;;3.20;;
51981;SDS011;37998;53.416;6.730;2023-03-26T02:37:37;18.35;;;4.03;;
51981;SDS011;37998;53.416;6.730;2023-03-26T02:40:04;14.00;;;3.53;;
51981;SDS011;37998;53.416;6.730;2023-03-26T02:42:35;19.25;;;3.95;;
51981;SDS011;37998;53.416;6.730;2023-03-26T02:45:01;16.30;;;3.40;;
51981;SDS011;37998;53.416;6.730;2023-03-26T02:47:27;21.83;;;4.95;;
51981;SDS011;37998;53.416;6.730;2023-03-26T02:49:52;22.77;;;4.32;;
51981;SDS011;37998;53.416;6.730;2023-03-26T02:52:18;26.70;;;5.47;;
51981;SDS011;37998;53.416;6.730;2023-03-26T02:54:44;23.30;;;4.22;;
51981;SDS011;37998;53.416;6.730;2023-03-26T02:57:11;23.23;;;4.40;;
51981;SDS011;37998;53.416;6.730;2023-03-26T02:59:36;21.00;;;3.97;;
51981;SDS011;37998;53.416;6.730;2023-03-26T03:02:02;22.02;;;3.72;;
51981;SDS011;37998;53.416;6.730;2023-03-26T03:04:28;21.60;;;4.55;;
51981;SDS011;37998;53.416;6.730;2023-03-26T03:06:54;23.52;;;4.63;;
51981;SDS011;37998;53.416;6.730;2023-03-26T03:09:24;23.70;;;3.95;;
51981;SDS011;37998;53.416;6.730;2023-03-26T03:11:50;19.13;;;3.53;;
51981;SDS011;37998;53.416;6.730;2023-03-26T03:14:17;19.08;;;3.88;;
51981;SDS011;37998;53.416;6.730;2023-03-26T03:16:43;20.35;;;4.50;;
51981;SDS011;37998;53.416;6.730;2023-03-26T03:19:08;18.52;;;3.90;;
51981;SDS011;37998;53.416;6.730;2023-03-26T03:21:34;15.73;;;4.05;;
51981;SDS011;37998;53.416;6.730;2023-03-26T03:24:00;20.35;;;3.85;;
51981;SDS011;37998;53.416;6.730;2023-03-26T03:26:26;15.45;;;3.65;;
51981;SDS011;37998;53.416;6.730;2023-03-26T03:28:53;16.92;;;3.67;;
51981;SDS011;37998;53.416;6.730;2023-03-26T03:31:21;21.25;;;4.65;;
51981;SDS011;37998;53.416;6.730;2023-03-26T03:33:49;17.13;;;3.92;;
51981;SDS011;37998;53.416;6.730;2023-03-26T03:36:16;14.68;;;3.33;;
51981;SDS011;37998;53.416;6.730;2023-03-26T03:38:43;16.35;;;3.72;;
51981;SDS011;37998;53.416;6.730;2023-03-26T03:41:09;14.70;;;4.28;;
51981;SDS011;37998;53.416;6.730;2023-03-26T03:43:35;16.58;;;4.20;;
51981;SDS011;37998;53.416;6.730;2023-03-26T03:46:01;16.52;;;3.65;;
51981;SDS011;37998;53.416;6.730;2023-03-26T03:48:27;19.55;;;4.13;;
51981;SDS011;37998;53.416;6.730;2023-03-26T03:50:53;23.35;;;4.38;;
51981;SDS011;37998;53.416;6.730;2023-03-26T03:53:20;22.90;;;4.72;;
51981;SDS011;37998;53.416;6.730;2023-03-26T03:55:50;16.58;;;3.95;;
51981;SDS011;37998;53.416;6.730;2023-03-26T03:58:21;25.25;;;4.30;;
51981;SDS011;37998;53.416;6.730;2023-03-26T04:00:48;19.50;;;3.80;;
51981;SDS011;37998;53.416;6.730;2023-03-26T04:03:15;24.73;;;4.07;;
51981;SDS011;37998;53.416;6.730;2023-03-26T04:05:41;17.20;;;3.95;;
51981;SDS011;37998;53.416;6.730;2023-03-26T04:08:13;28.20;;;4.90;;
51981;SDS011;37998;53.416;6.730;2023-03-26T04:10:40;22.10;;;3.22;;
51981;SDS011;37998;53.416;6.730;2023-03-26T04:13:07;15.52;;;4.05;;
51981;SDS011;37998;53.416;6.730;2023-03-26T04:15:34;17.98;;;3.60;;
51981;SDS011;37998;53.416;6.730;2023-03-26T04:18:00;16.55;;;3.95;;
51981;SDS011;37998;53.416;6.730;2023-03-26T04:20:26;21.67;;;3.97;;
51981;SDS011;37998;53.416;6.730;2023-03-26T04:22:52;20.50;;;3.72;;
51981;SDS011;37998;53.416;6.730;2023-03-26T04:25:18;15.02;;;3.78;;
51981;SDS011;37998;53.416;6.730;2023-03-26T04:27:45;13.30;;;3.33;;
51981;SDS011;37998;53.416;6.730;2023-03-26T04:30:15;19.92;;;3.38;;
51981;SDS011;37998;53.416;6.730;2023-03-26T04:32:44;16.30;;;3.30;;
51981;SDS011;37998;53.416;6.730;2023-03-26T04:35:12;18.85;;;3.95;;
51981;SDS011;37998;53.416;6.730;2023-03-26T04:37:40;18.45;;;5.18;;
51981;SDS011;37998;53.416;6.730;2023-03-26T04:40:15;13.30;;;4.03;;
51981;SDS011;37998;53.416;6.730;2023-03-26T04:42:44;21.85;;;4.20;;
51981;SDS011;37998;53.416;6.730;2023-03-26T04:45:11;13.88;;;3.72;;
51981;SDS011;37998;53.416;6.730;2023-03-26T04:47:38;18.25;;;4.00;;
51981;SDS011;37998;53.416;6.730;2023-03-26T04:50:05;16.80;;;4.05;;
51981;SDS011;37998;53.416;6.730;2023-03-26T04:52:32;22.50;;;4.15;;
51981;SDS011;37998;53.416;6.730;2023-03-26T04:54:58;14.50;;;3.97;;
51981;SDS011;37998;53.416;6.730;2023-03-26T04:57:26;19.63;;;3.60;;
51981;SDS011;37998;53.416;6.730;2023-03-26T04:59:56;22.60;;;4.70;;
51981;SDS011;37998;53.416;6.730;2023-03-26T05:02:22;16.15;;;3.20;;
51981;SDS011;37998;53.416;6.730;2023-03-26T05:04:49;18.35;;;3.25;;
51981;SDS011;37998;53.416;6.730;2023-03-26T05:07:18;17.13;;;3.67;;
51981;SDS011;37998;53.416;6.730;2023-03-26T05:09:46;17.05;;;3.50;;
51981;SDS011;37998;53.416;6.730;2023-03-26T05:12:12;22.45;;;3.90;;
51981;SDS011;37998;53.416;6.730;2023-03-26T05:14:38;13.80;;;3.80;;
51981;SDS011;37998;53.416;6.730;2023-03-26T05:17:03;23.17;;;4.13;;
51981;SDS011;37998;53.416;6.730;2023-03-26T05:19:30;14.80;;;3.40;;
51981;SDS011;37998;53.416;6.730;2023-03-26T05:21:56;16.08;;;4.22;;
51981;SDS011;37998;53.416;6.730;2023-03-26T05:24:22;17.77;;;3.42;;
51981;SDS011;37998;53.416;6.730;2023-03-26T05:26:49;16.25;;;4.13;;
51981;SDS011;37998;53.416;6.730;2023-03-26T05:29:15;22.42;;;3.40;;
51981;SDS011;37998;53.416;6.730;2023-03-26T05:31:41;16.35;;;3.88;;
51981;SDS011;37998;53.416;6.730;2023-03-26T05:34:08;12.65;;;3.78;;
51981;SDS011;37998;53.416;6.730;2023-03-26T05:36:34;13.82;;;3.20;;
51981;SDS011;37998;53.416;6.730;2023-03-26T05:39:00;11.85;;;3.47;;
51981;SDS011;37998;53.416;6.730;2023-03-26T05:41:27;13.18;;;3.65;;
51981;SDS011;37998;53.416;6.730;2023-03-26T05:43:53;19.98;;;3.97;;
51981;SDS011;37998;53.416;6.730;2023-03-26T05:46:19;15.82;;;4.15;;
51981;SDS011;37998;53.416;6.730;2023-03-26T05:48:47;17.70;;;4.00;;
51981;SDS011;37998;53.416;6.730;2023-03-26T05:51:13;18.38;;;3.75;;
51981;SDS011;37998;53.416;6.730;2023-03-26T05:53:39;14.30;;;3.45;;
51981;SDS011;37998;53.416;6.730;2023-03-26T05:56:06;15.00;;;3.00;;
51981;SDS011;37998;53.416;6.730;2023-03-26T05:58:32;21.50;;;3.72;;
51981;SDS011;37998;53.416;6.730;2023-03-26T06:01:03;13.73;;;3.50;;
51981;SDS011;37998;53.416;6.730;2023-03-26T06:03:32;23.83;;;3.70;;
51981;SDS011;37998;53.416;6.730;2023-03-26T06:05:59;13.70;;;3.20;;
51981;SDS011;37998;53.416;6.730;2023-03-26T06:08:25;22.80;;;3.67;;
51981;SDS011;37998;53.416;6.730;2023-03-26T06:10:57;15.90;;;3.60;;
51981;SDS011;37998;53.416;6.730;2023-03-26T06:13:32;16.90;;;3.88;;
51981;SDS011;37998;53.416;6.730;2023-03-26T06:15:57;15.50;;;4.45;;
51981;SDS011;37998;53.416;6.730;2023-03-26T06:18:24;20.10;;;3.60;;
51981;SDS011;37998;53.416;6.730;2023-03-26T06:20:50;16.13;;;3.40;;
51981;SDS011;37998;53.416;6.730;2023-03-26T06:23:17;12.57;;;3.25;;
51981;SDS011;37998;53.416;6.730;2023-03-26T06:25:43;12.68;;;3.70;;
51981;SDS011;37998;53.416;6.730;2023-03-26T06:28:12;17.63;;;3.75;;
51981;SDS011;37998;53.416;6.730;2023-03-26T06:30:37;19.58;;;4.03;;
51981;SDS011;37998;53.416;6.730;2023-03-26T06:33:04;16.92;;;3.38;;
51981;SDS011;37998;53.416;6.730;2023-03-26T06:35:30;18.55;;;3.58;;
51981;SDS011;37998;53.416;6.730;2023-03-26T06:37:56;17.80;;;4.43;;
51981;SDS011;37998;53.416;6.730;2023-03-26T06:40:22;17.70;;;3.92;;
51981;SDS011;37998;53.416;6.730;2023-03-26T06:42:48;17.27;;;3.53;;
51981;SDS011;37998;53.416;6.730;2023-03-26T06:45:14;12.43;;;3.40;;
51981;SDS011;37998;53.416;6.730;2023-03-26T06:47:40;16.70;;;3.63;;
51981;SDS011;37998;53.416;6.730;2023-03-26T06:50:07;10.25;;;3.33;;
51981;SDS011;37998;53.416;6.730;2023-03-26T06:52:34;22.60;;;4.28;;
51981;SDS011;37998;53.416;6.730;2023-03-26T06:54:59;17.13;;;4.63;;
51981;SDS011;37998;53.416;6.730;2023-03-26T06:57:25;14.95;;;3.00;;
51981;SDS011;37998;53.416;6.730;2023-03-26T06:59:51;19.73;;;3.42;;
51981;SDS011;37998;53.416;6.730;2023-03-26T07:02:16;16.75;;;3.47;;
51981;SDS011;37998;53.416;6.730;2023-03-26T07:04:42;11.90;;;3.30;;
51981;SDS011;37998;53.416;6.730;2023-03-26T07:07:08;14.20;;;3.22;;
51981;SDS011;37998;53.416;6.730;2023-03-26T07:09:33;18.88;;;3.85;;
51981;SDS011;37998;53.416;6.730;2023-03-26T07:11:59;21.65;;;3.72;;
51981;SDS011;37998;53.416;6.730;2023-03-26T07:14:25;14.55;;;2.85;;
51981;SDS011;37998;53.416;6.730;2023-03-26T07:16:56;12.63;;;3.45;;
51981;SDS011;37998;53.416;6.730;2023-03-26T07:19:25;13.32;;;3.35;;
51981;SDS011;37998;53.416;6.730;2023-03-26T07:21:51;13.88;;;3.35;;
51981;SDS011;37998;53.416;6.730;2023-03-26T07:24:17;20.10;;;3.08;;
51981;SDS011;37998;53.416;6.730;2023-03-26T07:29:40;16.15;;;3.65;;
51981;SDS011;37998;53.416;6.730;2023-03-26T07:32:22;12.63;;;3.10;;
51981;SDS011;37998;53.416;6.730;2023-03-26T07:35:01;11.45;;;2.80;;
51981;SDS011;37998;53.416;6.730;2023-03-26T07:43:24;13.73;;;2.80;;
51981;SDS011;37998;53.416;6.730;2023-03-26T07:46:12;13.60;;;3.60;;
51981;SDS011;37998;53.416;6.730;2023-03-26T07:48:39;21.63;;;3.35;;
51981;SDS011;37998;53.416;6.730;2023-03-26T07:51:12;14.90;;;3.92;;
51981;SDS011;37998;53.416;6.730;2023-03-26T07:53:38;14.57;;;3.35;;
51981;SDS011;37998;53.416;6.730;2023-03-26T07:56:06;13.50;;;2.97;;
51981;SDS011;37998;53.416;6.730;2023-03-26T08:12:54;11.23;;;2.72;;
51981;SDS011;37998;53.416;6.730;2023-03-26T08:18:50;16.30;;;2.90;;
51981;SDS011;37998;53.416;6.730;2023-03-26T08:21:31;16.27;;;3.85;;
51981;SDS011;37998;53.416;6.730;2023-03-26T08:24:12;18.13;;;3.88;;
51981;SDS011;37998;53.416;6.730;2023-03-26T08:32:03;13.70;;;3.20;;
51981;SDS011;37998;53.416;6.730;2023-03-26T08:34:33;16.00;;;2.90;;
51981;SDS011;37998;53.416;6.730;2023-03-26T08:36:59;13.43;;;3.72;;
51981;SDS011;37998;53.416;6.730;2023-03-26T08:39:25;14.85;;;3.40;;
51981;SDS011;37998;53.416;6.730;2023-03-26T08:59:05;14.13;;;3.35;;
51981;SDS011;37998;53.416;6.730;2023-03-26T09:10:28;17.38;;;3.67;;
51981;SDS011;37998;53.416;6.730;2023-03-26T09:24:50;17.42;;;3.78;;
51981;SDS011;37998;53.416;6.730;2023-03-26T09:30:17;12.88;;;3.03;;
51981;SDS011;37998;53.416;6.730;2023-03-26T09:39:08;15.85;;;3.58;;
51981;SDS011;37998;53.416;6.730;2023-03-26T09:50:43;11.13;;;2.80;;
51981;SDS011;37998;53.416;6.730;2023-03-26T09:58:47;13.13;;;2.80;;
51981;SDS011;37998;53.416;6.730;2023-03-26T10:07:23;12.75;;;2.53;;
51981;SDS011;37998;53.416;6.730;2023-03-26T10:12:58;13.52;;;2.65;;
51981;SDS011;37998;53.416;6.730;2023-03-26T10:18:35;13.70;;;2.53;;
51981;SDS011;37998;53.416;6.730;2023-03-26T10:23:49;12.85;;;2.67;;
51981;SDS011;37998;53.416;6.730;2023-03-26T10:31:51;11.40;;;2.58;;
51981;SDS011;37998;53.416;6.730;2023-03-26T10:37:13;15.30;;;2.72;;
51981;SDS011;37998;53.416;6.730;2023-03-26T10:40:29;13.07;;;2.45;;
51981;SDS011;37998;53.416;6.730;2023-03-26T10:42:54;11.82;;;2.72;;
51981;SDS011;37998;53.416;6.730;2023-03-26T10:54:01;16.77;;;3.60;;
51981;SDS011;37998;53.416;6.730;2023-03-26T10:56:46;13.38;;;2.47;;
51981;SDS011;37998;53.416;6.730;2023-03-26T10:59:15;11.63;;;2.53;;
51981;SDS011;37998;53.416;6.730;2023-03-26T11:13:28;16.80;;;3.38;;
51981;SDS011;37998;53.416;6.730;2023-03-26T11:16:01;9.52;;;2.55;;
51981;SDS011;37998;53.416;6.730;2023-03-26T11:21:23;18.92;;;2.95;;
51981;SDS011;37998;53.416;6.730;2023-03-26T11:26:46;8.68;;;2.10;;
51981;SDS011;37998;53.416;6.730;2023-03-26T11:37:34;5.43;;;2.50;;
51981;SDS011;37998;53.416;6.730;2023-03-26T11:40:14;11.98;;;2.63;;
51981;SDS011;37998;53.416;6.730;2023-03-26T11:42:45;9.75;;;2.42;;
51981;SDS011;37998;53.416;6.730;2023-03-26T11:45:15;11.98;;;2.60;;
51981;SDS011;37998;53.416;6.730;2023-03-26T11:50:40;7.60;;;2.55;;
51981;SDS011;37998;53.416;6.730;2023-03-26T11:53:14;14.48;;;2.60;;
51981;SDS011;37998;53.416;6.730;2023-03-26T11:55:46;10.00;;;2.42;;
51981;SDS011;37998;53.416;6.730;2023-03-26T11:58:21;10.60;;;2.97;;
51981;SDS011;37998;53.416;6.730;2023-03-26T12:00:55;11.55;;;2.30;;
51981;SDS011;37998;53.416;6.730;2023-03-26T12:03:21;15.10;;;2.92;;
51981;SDS011;37998;53.416;6.730;2023-03-26T12:05:48;9.75;;;2.50;;
51981;SDS011;37998;53.416;6.730;2023-03-26T12:08:20;8.20;;;2.90;;
51981;SDS011;37998;53.416;6.730;2023-03-26T12:10:59;16.05;;;3.80;;
51981;SDS011;37998;53.416;6.730;2023-03-26T12:13:34;13.05;;;2.60;;
51981;SDS011;37998;53.416;6.730;2023-03-26T12:16:14;11.63;;;2.40;;
51981;SDS011;37998;53.416;6.730;2023-03-26T12:18:43;11.10;;;2.60;;
51981;SDS011;37998;53.416;6.730;2023-03-26T12:21:12;9.95;;;2.35;;
51981;SDS011;37998;53.416;6.730;2023-03-26T12:26:28;11.38;;;2.38;;
51981;SDS011;37998;53.416;6.730;2023-03-26T12:29:07;10.70;;;2.33;;
51981;SDS011;37998;53.416;6.730;2023-03-26T12:31:44;8.13;;;1.90;;
51981;SDS011;37998;53.416;6.730;2023-03-26T12:34:28;7.97;;;2.28;;
51981;SDS011;37998;53.416;6.730;2023-03-26T12:36:58;9.70;;;2.40;;
51981;SDS011;37998;53.416;6.730;2023-03-26T12:41:59;12.35;;;3.20;;
51981;SDS011;37998;53.416;6.730;2023-03-26T12:44:30;15.50;;;2.83;;
51981;SDS011;37998;53.416;6.730;2023-03-26T12:47:19;10.75;;;2.05;;
51981;SDS011;37998;53.416;6.730;2023-03-26T12:49:54;9.05;;;2.40;;
51981;SDS011;37998;53.416;6.730;2023-03-26T12:55:20;8.68;;;2.13;;
51981;SDS011;37998;53.416;6.730;2023-03-26T13:03:19;10.65;;;1.90;;
51981;SDS011;37998;53.416;6.730;2023-03-26T13:08:50;9.38;;;2.70;;
51981;SDS011;37998;53.416;6.730;2023-03-26T13:16:55;8.55;;;2.20;;
51981;SDS011;37998;53.416;6.730;2023-03-26T13:19:28;9.77;;;2.30;;
51981;SDS011;37998;53.416;6.730;2023-03-26T13:25:01;12.98;;;3.25;;
51981;SDS011;37998;53.416;6.730;2023-03-26T13:51:31;7.60;;;2.03;;
51981;SDS011;37998;53.416;6.730;2023-03-26T13:56:51;8.23;;;2.20;;
51981;SDS011;37998;53.416;6.730;2023-03-26T13:59:32;13.43;;;2.67;;
51981;SDS011;37998;53.416;6.730;2023-03-26T14:02:07;15.15;;;3.22;;
51981;SDS011;37998;53.416;6.730;2023-03-26T14:05:08;15.15;;;2.95;;
51981;SDS011;37998;53.416;6.730;2023-03-26T14:07:56;9.55;;;2.70;;
51981;SDS011;37998;53.416;6.730;2023-03-26T14:10:32;14.80;;;2.67;;
51981;SDS011;37998;53.416;6.730;2023-03-26T14:16:04;12.02;;;2.78;;
51981;SDS011;37998;53.416;6.730;2023-03-26T14:18:48;8.13;;;2.22;;
51981;SDS011;37998;53.416;6.730;2023-03-26T14:30:36;12.27;;;2.65;;
51981;SDS011;37998;53.416;6.730;2023-03-26T14:41:28;14.05;;;2.60;;
51981;SDS011;37998;53.416;6.730;2023-03-26T14:44:16;10.70;;;2.58;;
51981;SDS011;37998;53.416;6.730;2023-03-26T14:47:15;13.05;;;2.53;;
51981;SDS011;37998;53.416;6.730;2023-03-26T14:52:55;9.70;;;2.60;;
51981;SDS011;37998;53.416;6.730;2023-03-26T15:01:06;17.10;;;3.03;;
51981;SDS011;37998;53.416;6.730;2023-03-26T15:03:49;16.65;;;3.60;;
51981;SDS011;37998;53.416;6.730;2023-03-26T15:12:50;8.20;;;2.25;;
51981;SDS011;37998;53.416;6.730;2023-03-26T15:43:13;10.77;;;2.88;;
51981;SDS011;37998;53.416;6.730;2023-03-26T15:45:44;17.50;;;2.75;;
51981;SDS011;37998;53.416;6.730;2023-03-26T15:48:58;11.13;;;2.42;;
51981;SDS011;37998;53.416;6.730;2023-03-26T15:51:44;9.15;;;2.85;;
51981;SDS011;37998;53.416;6.730;2023-03-26T15:54:31;10.90;;;2.75;;
51981;SDS011;37998;53.416;6.730;2023-03-26T16:00:17;11.52;;;3.40;;
51981;SDS011;37998;53.416;6.730;2023-03-26T16:17:00;11.07;;;2.63;;
51981;SDS011;37998;53.416;6.730;2023-03-26T16:19:45;4.82;;;2.35;;
51981;SDS011;37998;53.416;6.730;2023-03-26T16:22:34;9.82;;;3.53;;
51981;SDS011;37998;53.416;6.730;2023-03-26T16:33:35;9.35;;;2.17;;
51981;SDS011;37998;53.416;6.730;2023-03-26T16:52:21;12.57;;;2.40;;
51981;SDS011;37998;53.416;6.730;2023-03-26T17:09:15;9.48;;;2.60;;
51981;SDS011;37998;53.416;6.730;2023-03-26T17:14:53;7.05;;;2.40;;
51981;SDS011;37998;53.416;6.730;2023-03-26T17:31:32;7.32;;;2.20;;
51981;SDS011;37998;53.416;6.730;2023-03-26T17:37:02;5.00;;;2.65;;
51981;SDS011;37998;53.416;6.730;2023-03-26T17:44:56;10.32;;;2.53;;
51981;SDS011;37998;53.416;6.730;2023-03-26T17:47:25;11.10;;;2.33;;
51981;SDS011;37998;53.416;6.730;2023-03-26T17:50:05;9.85;;;1.92;;
51981;SDS011;37998;53.416;6.730;2023-03-26T17:55:13;9.07;;;2.35;;
51981;SDS011;37998;53.416;6.730;2023-03-26T17:57:42;7.47;;;2.30;;
51981;SDS011;37998;53.416;6.730;2023-03-26T18:00:54;10.40;;;2.30;;
51981;SDS011;37998;53.416;6.730;2023-03-26T18:05:47;9.00;;;2.15;;
51981;SDS011;37998;53.416;6.730;2023-03-26T18:16:18;5.13;;;2.00;;
51981;SDS011;37998;53.416;6.730;2023-03-26T18:19:01;13.18;;;2.40;;
51981;SDS011;37998;53.416;6.730;2023-03-26T18:21:41;7.28;;;2.22;;
51981;SDS011;37998;53.416;6.730;2023-03-26T18:24:28;12.77;;;2.40;;
51981;SDS011;37998;53.416;6.730;2023-03-26T18:27:02;10.35;;;2.58;;
51981;SDS011;37998;53.416;6.730;2023-03-26T18:29:31;9.30;;;2.30;;
51981;SDS011;37998;53.416;6.730;2023-03-26T18:32:00;10.27;;;2.28;;
51981;SDS011;37998;53.416;6.730;2023-03-26T18:34:31;16.23;;;2.53;;
51981;SDS011;37998;53.416;6.730;2023-03-26T18:42:26;8.50;;;2.33;;
51981;SDS011;37998;53.416;6.730;2023-03-26T18:44:53;6.80;;;2.00;;
51981;SDS011;37998;53.416;6.730;2023-03-26T18:47:21;7.18;;;2.40;;
51981;SDS011;37998;53.416;6.730;2023-03-26T18:49:48;12.32;;;2.38;;
51981;SDS011;37998;53.416;6.730;2023-03-26T18:52:18;7.82;;;1.90;;
51981;SDS011;37998;53.416;6.730;2023-03-26T18:54:49;7.75;;;2.60;;
51981;SDS011;37998;53.416;6.730;2023-03-26T18:57:23;10.00;;;3.33;;
51981;SDS011;37998;53.416;6.730;2023-03-26T18:59:51;6.93;;;2.45;;
51981;SDS011;37998;53.416;6.730;2023-03-26T19:02:19;4.47;;;1.95;;
51981;SDS011;37998;53.416;6.730;2023-03-26T19:04:46;6.53;;;2.22;;
51981;SDS011;37998;53.416;6.730;2023-03-26T19:07:14;10.25;;;2.38;;
51981;SDS011;37998;53.416;6.730;2023-03-26T19:09:46;11.77;;;2.50;;
51981;SDS011;37998;53.416;6.730;2023-03-26T19:12:17;8.88;;;2.00;;
51981;SDS011;37998;53.416;6.730;2023-03-26T19:14:52;12.50;;;3.03;;
51981;SDS011;37998;53.416;6.730;2023-03-26T19:17:19;7.95;;;1.85;;
51981;SDS011;37998;53.416;6.730;2023-03-26T19:19:46;9.60;;;2.15;;
51981;SDS011;37998;53.416;6.730;2023-03-26T19:22:14;7.13;;;2.20;;
51981;SDS011;37998;53.416;6.730;2023-03-26T19:24:40;8.63;;;2.28;;
51981;SDS011;37998;53.416;6.730;2023-03-26T19:27:06;6.05;;;2.30;;
51981;SDS011;37998;53.416;6.730;2023-03-26T19:29:34;7.07;;;2.10;;
51981;SDS011;37998;53.416;6.730;2023-03-26T19:32:04;8.50;;;2.00;;
51981;SDS011;37998;53.416;6.730;2023-03-26T19:34:40;6.78;;;2.30;;
51981;SDS011;37998;53.416;6.730;2023-03-26T19:39:49;9.07;;;1.85;;
51981;SDS011;37998;53.416;6.730;2023-03-26T19:44:45;6.25;;;2.33;;
51981;SDS011;37998;53.416;6.730;2023-03-26T19:57:23;13.15;;;2.63;;
51981;SDS011;37998;53.416;6.730;2023-03-26T19:59:49;9.05;;;1.90;;
51981;SDS011;37998;53.416;6.730;2023-03-26T20:02:15;9.57;;;2.08;;
51981;SDS011;37998;53.416;6.730;2023-03-26T20:04:42;13.15;;;2.38;;
51981;SDS011;37998;53.416;6.730;2023-03-26T20:07:09;6.32;;;2.20;;
51981;SDS011;37998;53.416;6.730;2023-03-26T20:09:41;7.10;;;2.58;;
51981;SDS011;37998;53.416;6.730;2023-03-26T20:12:08;12.90;;;2.35;;
51981;SDS011;37998;53.416;6.730;2023-03-26T20:14:34;9.00;;;2.05;;
51981;SDS011;37998;53.416;6.730;2023-03-26T20:17:00;9.05;;;2.17;;
51981;SDS011;37998;53.416;6.730;2023-03-26T20:19:26;12.88;;;2.75;;
51981;SDS011;37998;53.416;6.730;2023-03-26T20:21:52;14.52;;;2.47;;
51981;SDS011;37998;53.416;6.730;2023-03-26T20:24:18;6.38;;;2.10;;
51981;SDS011;37998;53.416;6.730;2023-03-26T20:26:45;5.72;;;1.80;;
51981;SDS011;37998;53.416;6.730;2023-03-26T20:29:12;10.05;;;2.15;;
51981;SDS011;37998;53.416;6.730;2023-03-26T20:31:39;8.48;;;2.08;;
51981;SDS011;37998;53.416;6.730;2023-03-26T20:34:40;9.50;;;2.67;;
51981;SDS011;37998;53.416;6.730;2023-03-26T20:36:59;8.90;;;2.25;;
51981;SDS011;37998;53.416;6.730;2023-03-26T20:39:25;6.93;;;2.53;;
51981;SDS011;37998;53.416;6.730;2023-03-26T20:41:51;9.00;;;2.72;;
51981;SDS011;37998;53.416;6.730;2023-03-26T20:44:19;9.43;;;2.13;;
51981;SDS011;37998;53.416;6.730;2023-03-26T20:46:46;10.23;;;2.38;;
51981;SDS011;37998;53.416;6.730;2023-03-26T20:49:13;13.40;;;2.50;;
51981;SDS011;37998;53.416;6.730;2023-03-26T20:51:39;10.15;;;2.92;;
51981;SDS011;37998;53.416;6.730;2023-03-26T20:54:20;10.65;;;3.28;;
51981;SDS011;37998;53.416;6.730;2023-03-26T20:56:48;10.10;;;2.58;;
51981;SDS011;37998;53.416;6.730;2023-03-26T20:59:15;10.20;;;2.60;;
51981;SDS011;37998;53.416;6.730;2023-03-26T21:01:46;9.63;;;2.55;;
51981;SDS011;37998;53.416;6.730;2023-03-26T21:04:13;12.63;;;2.60;;
51981;SDS011;37998;53.416;6.730;2023-03-26T21:06:40;11.73;;;2.60;;
51981;SDS011;37998;53.416;6.730;2023-03-26T21:09:08;10.77;;;2.92;;
51981;SDS011;37998;53.416;6.730;2023-03-26T21:14:27;13.18;;;3.05;;
51981;SDS011;37998;53.416;6.730;2023-03-26T21:17:05;10.32;;;2.55;;
51981;SDS011;37998;53.416;6.730;2023-03-26T21:19:42;7.40;;;2.22;;
51981;SDS011;37998;53.416;6.730;2023-03-26T21:22:11;10.30;;;2.25;;
51981;SDS011;37998;53.416;6.730;2023-03-26T21:24:44;7.13;;;2.67;;
51981;SDS011;37998;53.416;6.730;2023-03-26T21:27:33;12.05;;;2.40;;
51981;SDS011;37998;53.416;6.730;2023-03-26T21:30:09;8.00;;;1.85;;
51981;SDS011;37998;53.416;6.730;2023-03-26T21:32:40;13.05;;;2.28;;
51981;SDS011;37998;53.416;6.730;2023-03-26T21:35:07;17.13;;;2.25;;
51981;SDS011;37998;53.416;6.730;2023-03-26T21:37:34;10.50;;;2.35;;
51981;SDS011;37998;53.416;6.730;2023-03-26T21:40:01;11.23;;;2.58;;
51981;SDS011;37998;53.416;6.730;2023-03-26T21:42:37;9.93;;;2.78;;
51981;SDS011;37998;53.416;6.730;2023-03-26T21:45:02;11.70;;;2.38;;